Time;durP1;ratioP1;P1;durP2;ratioP2;P2;SDS_P1;SDS_P2;PMS_P1;PMS_P2;Temp;Humidity;BMP_temperature;BMP_pressure;BME280_temperature;BME280_humidity;BME280_pressure;Samples;Min_cycle;Max_cycle;Signal;HPM_P1;HPM_P2
2021/07/24 00:00:36;;;;;;;12.43;7.00;;;;;;;17.25;100.00;100968.63;5024352;28;20030;-77
2021/07/24 00:03:02;;;;;;;12.98;7.45;;;;;;;17.17;100.00;100956.19;5042028;28;20044;-77
2021/07/24 00:05:28;;;;;;;11.98;7.03;;;;;;;17.18;100.00;100958.53;5031024;28;20058;-77
2021/07/24 00:07:53;;;;;;;13.85;7.57;;;;;;;17.25;100.00;100955.78;5025946;28;20156;-77
2021/07/24 00:10:19;;;;;;;12.98;7.50;;;;;;;17.34;99.72;100960.84;5042591;28;20041;-77
2021/07/24 00:15:17;;;;;;;13.38;7.70;;;;;;;17.28;100.00;100946.84;4968391;28;20446;-74
2021/07/24 00:17:43;;;;;;;15.75;8.85;;;;;;;17.18;100.00;100958.53;4997799;28;20038;-74
2021/07/24 00:20:09;;;;;;;14.35;8.55;;;;;;;17.23;100.00;100949.94;4989521;28;20490;-74
2021/07/24 00:22:38;;;;;;;16.13;8.88;;;;;;;17.22;100.00;100947.63;4988486;28;20045;-74
2021/07/24 00:25:04;;;;;;;14.50;8.25;;;;;;;17.22;100.00;100955.78;5022249;28;20040;-74
2021/07/24 00:27:33;;;;;;;15.98;8.05;;;;;;;17.12;100.00;100949.19;4987932;28;20037;-74
2021/07/24 00:29:59;;;;;;;13.35;7.05;;;;;;;17.10;100.00;100948.81;5023716;28;20034;-74
2021/07/24 00:32:26;;;;;;;12.20;6.97;;;;;;;17.15;100.00;100948.41;4993641;28;20034;-74
2021/07/24 00:34:52;;;;;;;16.20;7.25;;;;;;;17.15;100.00;100948.41;5005429;28;20035;-75
2021/07/24 00:37:20;;;;;;;11.40;6.85;;;;;;;17.16;100.00;100947.25;5024664;28;20120;-74
2021/07/24 00:39:46;;;;;;;12.20;6.80;;;;;;;17.09;100.00;100955.44;5025363;28;20117;-74
2021/07/24 00:42:17;;;;;;;10.73;6.60;;;;;;;16.99;100.00;100948.06;5008174;28;20663;-74
2021/07/24 00:44:45;;;;;;;10.30;6.10;;;;;;;16.98;100.00;100946.50;5009412;28;20034;-75
2021/07/24 00:47:16;;;;;;;11.95;6.70;;;;;;;16.87;100.00;100946.50;4981604;28;20045;-74
2021/07/24 00:49:43;;;;;;;10.70;6.63;;;;;;;16.89;100.00;100944.19;5009380;28;20406;-74
2021/07/24 00:52:10;;;;;;;10.90;6.50;;;;;;;17.03;100.00;100946.88;5010178;28;20040;-74
2021/07/24 00:54:36;;;;;;;13.70;6.75;;;;;;;17.02;100.00;100939.09;5024439;28;20037;-74
2021/07/24 00:57:02;;;;;;;13.02;7.25;;;;;;;16.99;99.86;100939.91;5008337;28;20060;-74
2021/07/24 00:59:28;;;;;;;12.23;7.75;;;;;;;16.99;99.80;100950.78;5002020;28;20117;-74
2021/07/24 01:01:53;;;;;;;15.07;8.18;;;;;;;17.00;100.00;100949.59;4994359;28;20041;-74
2021/07/24 01:04:19;;;;;;;14.25;8.05;;;;;;;16.86;100.00;100946.91;5002291;28;20434;-74
2021/07/24 01:06:49;;;;;;;12.02;7.25;;;;;;;16.88;100.00;100945.34;5009269;28;20018;-75
2021/07/24 01:09:15;;;;;;;11.75;7.05;;;;;;;16.85;100.00;100948.84;5004535;28;20041;-74
2021/07/24 01:11:42;;;;;;;10.95;6.68;;;;;;;16.90;100.00;100942.22;5017406;28;20453;-74
2021/07/24 01:14:09;;;;;;;12.23;6.63;;;;;;;16.91;100.00;100939.13;5019773;28;20037;-74
2021/07/24 01:16:35;;;;;;;13.88;6.10;;;;;;;16.87;100.00;100943.00;5027154;28;20026;-74
2021/07/24 01:19:28;;;;;;;11.60;6.50;;;;;;;16.80;100.00;100943.03;5006919;28;20073;-74
2021/07/24 01:21:55;;;;;;;13.27;8.20;;;;;;;16.76;100.00;100942.25;5021054;28;20401;-75
2021/07/24 01:24:22;;;;;;;13.88;7.65;;;;;;;16.73;100.00;100943.00;5024896;28;20030;-75
2021/07/24 01:26:49;;;;;;;13.93;7.90;;;;;;;16.83;100.00;100944.94;5001777;28;20457;-74
2021/07/24 01:29:22;;;;;;;19.58;8.90;;;;;;;16.76;100.00;100950.41;5019383;28;20099;-74
2021/07/24 01:31:51;;;;;;;14.75;7.88;;;;;;;16.71;100.00;100945.34;5005423;28;20044;-74
2021/07/24 01:34:19;;;;;;;13.07;7.50;;;;;;;16.68;100.00;100951.56;4989145;28;20483;-74
2021/07/24 01:36:45;;;;;;;12.80;7.15;;;;;;;16.74;100.00;100939.88;5022791;28;20022;-74
2021/07/24 01:39:11;;;;;;;13.48;7.35;;;;;;;16.78;100.00;100940.66;5010406;28;20156;-74
2021/07/24 01:41:44;;;;;;;14.13;7.75;;;;;;;16.79;100.00;100944.16;5018995;28;20030;-74
2021/07/24 01:44:10;;;;;;;14.52;7.40;;;;;;;16.78;100.00;100946.09;5001985;28;20040;-74
2021/07/24 01:46:35;;;;;;;13.00;7.30;;;;;;;16.74;100.00;100947.28;5027206;28;20101;-74
2021/07/24 01:52:46;;;;;;;12.73;8.00;;;;;;;16.73;100.00;100948.44;5010894;28;20401;-74
2021/07/24 01:55:06;;;;;;;14.45;7.88;;;;;;;16.73;100.00;100938.34;5011857;28;20041;-74
2021/07/24 01:57:43;;;;;;;14.57;7.60;;;;;;;16.76;100.00;100939.53;5009259;28;20022;-74
2021/07/24 02:00:11;;;;;;;12.13;7.60;;;;;;;16.76;100.00;100936.81;5008018;28;20042;-74
2021/07/24 02:02:56;;;;;;;12.98;7.88;;;;;;;16.74;100.00;100930.97;5011199;28;20077;-75
2021/07/24 02:05:48;;;;;;;14.95;8.27;;;;;;;16.77;100.00;100928.25;5004184;28;20038;-74
2021/07/24 02:08:24;;;;;;;13.70;8.25;;;;;;;16.76;100.00;100928.66;5019599;28;20030;-74
2021/07/24 02:10:51;;;;;;;17.85;8.65;;;;;;;16.80;100.00;100927.44;5007828;28;20041;-74
2021/07/24 02:13:19;;;;;;;17.02;8.77;;;;;;;16.80;100.00;100927.44;5012480;28;20427;-74
2021/07/24 02:15:45;;;;;;;14.02;8.45;;;;;;;16.70;100.00;100927.47;5006822;28;20026;-74
2021/07/24 02:18:20;;;;;;;13.45;7.85;;;;;;;16.58;100.00;100923.19;5009349;28;20060;-74
2021/07/24 02:20:52;;;;;;;14.57;8.65;;;;;;;16.59;100.00;100918.56;5011955;28;20030;-74
2021/07/24 02:23:19;;;;;;;12.18;7.90;;;;;;;16.57;100.00;100912.72;5028205;28;20030;-75
2021/07/24 02:25:45;;;;;;;14.70;8.70;;;;;;;16.50;100.00;100910.75;5008532;28;20355;-75
2021/07/24 02:28:11;;;;;;;14.10;7.72;;;;;;;16.48;100.00;100901.41;5026437;28;20062;-74
2021/07/24 02:30:37;;;;;;;15.73;8.20;;;;;;;16.49;100.00;100897.56;5009140;28;20042;-75
2021/07/24 02:33:03;;;;;;;16.02;9.27;;;;;;;16.43;100.00;100901.81;5027070;28;20059;-75
2021/07/24 02:35:29;;;;;;;15.38;9.05;;;;;;;16.45;100.00;100894.03;5005177;28;20486;-75
2021/07/24 02:38:16;;;;;;;18.75;9.48;;;;;;;16.47;100.00;100889.78;5001608;28;20030;-75
2021/07/24 02:40:45;;;;;;;20.38;9.35;;;;;;;16.41;100.00;100885.09;4994370;28;20157;-74
2021/07/24 02:43:14;;;;;;;15.75;9.20;;;;;;;16.37;100.00;100879.66;5027937;28;20660;-74
2021/07/24 02:45:39;;;;;;;14.63;8.23;;;;;;;16.34;100.00;100876.94;5006542;28;20116;-75
2021/07/24 02:48:07;;;;;;;14.68;9.25;;;;;;;16.30;100.00;100876.16;5008127;28;20030;-74
2021/07/24 02:50:41;;;;;;;12.88;8.80;;;;;;;16.43;100.00;100869.19;5025139;28;20026;-74
2021/07/24 02:53:07;;;;;;;16.55;9.00;;;;;;;16.34;100.00;100866.06;5027770;28;20037;-74
2021/07/24 02:55:33;;;;;;;15.15;9.07;;;;;;;16.26;100.00;100866.06;5011607;28;20033;-74
2021/07/24 02:57:59;;;;;;;13.20;8.55;;;;;;;16.25;100.00;100869.16;5007629;28;20037;-75
2021/07/24 03:00:25;;;;;;;17.67;9.32;;;;;;;16.04;100.00;100856.34;5002651;28;20092;-75
2021/07/24 03:02:50;;;;;;;14.93;9.30;;;;;;;16.01;100.00;100859.81;5002175;28;20379;-75
2021/07/24 03:05:16;;;;;;;16.85;8.88;;;;;;;16.01;100.00;100854.38;5005892;28;20475;-75
2021/07/24 03:07:41;;;;;;;16.98;9.32;;;;;;;15.84;100.00;100857.84;5003574;28;20112;-74
2021/07/24 03:10:07;;;;;;;15.68;8.80;;;;;;;15.94;100.00;100853.59;5004776;28;20042;-74
2021/07/24 03:12:32;;;;;;;14.48;8.98;;;;;;;16.06;100.00;100856.75;5002761;28;20546;-74
2021/07/24 03:14:58;;;;;;;15.27;8.88;;;;;;;15.87;100.00;100848.16;5020725;28;20125;-74
2021/07/24 03:17:26;;;;;;;16.40;9.70;;;;;;;15.85;100.00;100845.06;5009559;28;20045;-74
2021/07/24 03:19:52;;;;;;;17.98;8.82;;;;;;;16.02;100.00;100836.16;5004083;28;20026;-74
2021/07/24 03:22:18;;;;;;;18.90;9.02;;;;;;;16.12;100.00;100838.88;5011547;28;20030;-75
2021/07/24 03:24:43;;;;;;;14.95;8.98;;;;;;;16.04;100.00;100831.91;5008476;28;20030;-75
2021/07/24 03:27:09;;;;;;;15.15;9.15;;;;;;;16.09;100.00;100836.16;5010606;28;20029;-74
2021/07/24 03:29:34;;;;;;;15.70;8.25;;;;;;;16.03;100.00;100830.31;5010191;28;20675;-74
2021/07/24 03:31:59;;;;;;;15.68;8.75;;;;;;;16.09;100.00;100822.56;5007405;28;20061;-74
2021/07/24 03:34:25;;;;;;;15.80;9.38;;;;;;;16.07;100.00;100825.69;4997599;28;20022;-75
2021/07/24 03:36:50;;;;;;;13.13;8.32;;;;;;;16.08;100.00;100826.47;4998685;28;20042;-74
2021/07/24 03:39:16;;;;;;;18.08;8.38;;;;;;;16.08;100.00;100823.75;5022569;28;20038;-74
2021/07/24 03:41:42;;;;;;;15.95;9.65;;;;;;;16.14;100.00;100824.91;5003450;28;20026;-75
2021/07/24 03:44:07;;;;;;;16.40;8.38;;;;;;;16.16;100.00;100823.34;5016038;28;20048;-74
2021/07/24 03:46:33;;;;;;;15.00;8.98;;;;;;;16.14;100.00;100822.94;4998945;28;20068;-74
2021/07/24 03:48:59;;;;;;;13.75;8.65;;;;;;;16.12;100.00;100821.81;5015829;28;20025;-74
2021/07/24 03:51:24;;;;;;;19.92;8.73;;;;;;;16.15;100.00;100819.09;5024092;28;20100;-74
2021/07/24 03:53:50;;;;;;;14.95;8.60;;;;;;;16.22;100.00;100821.00;5010458;28;20061;-74
2021/07/24 03:56:20;;;;;;;15.65;8.65;;;;;;;16.15;100.00;100826.44;5009093;28;20470;-75
2021/07/24 03:58:48;;;;;;;16.83;9.07;;;;;;;16.09;100.00;100823.34;5008107;28;20042;-75
2021/07/24 04:01:14;;;;;;;14.63;7.90;;;;;;;16.10;100.00;100819.44;5004097;28;20311;-75
2021/07/24 04:03:40;;;;;;;19.25;8.48;;;;;;;16.10;100.00;100827.59;5002796;28;20221;-75
2021/07/24 04:06:25;;;;;;;18.83;8.80;;;;;;;16.21;100.00;100824.91;4988888;28;20029;-74
2021/07/24 04:08:53;;;;;;;12.25;8.18;;;;;;;16.30;100.00;100816.38;5009106;28;20037;-74
2021/07/24 04:11:20;;;;;;;17.38;8.50;;;;;;;16.31;100.00;100824.13;5006133;28;20094;-75
2021/07/24 04:13:47;;;;;;;19.77;9.25;;;;;;;16.30;100.00;100828.00;5009397;28;20033;-75
2021/07/24 04:16:13;;;;;;;16.33;8.52;;;;;;;16.39;100.00;100830.34;5010091;28;20030;-75
2021/07/24 04:18:39;;;;;;;15.57;8.82;;;;;;;16.44;100.00;100822.56;5024489;28;20052;-74
2021/07/24 04:21:04;;;;;;;16.88;9.27;;;;;;;16.47;100.00;100823.72;5002761;28;20026;-75
2021/07/24 04:23:30;;;;;;;16.67;8.45;;;;;;;16.49;100.00;100821.44;5025340;28;20032;-75
2021/07/24 04:25:56;;;;;;;14.15;8.60;;;;;;;16.48;100.00;100826.09;5009639;28;20037;-75
2021/07/24 04:28:21;;;;;;;15.60;8.20;;;;;;;16.54;100.00;100815.59;4988948;28;20038;-75
2021/07/24 04:30:47;;;;;;;13.90;8.65;;;;;;;16.58;100.00;100819.88;5007993;28;20501;-75
2021/07/24 04:33:12;;;;;;;18.95;9.13;;;;;;;16.58;100.00;100810.91;5025005;28;20029;-75
2021/07/24 04:35:43;;;;;;;15.40;8.65;;;;;;;16.61;100.00;100810.13;5004804;28;20033;-75
2021/07/24 04:38:09;;;;;;;15.15;8.63;;;;;;;16.70;100.00;100805.88;4995028;28;20038;-75
2021/07/24 04:40:37;;;;;;;15.20;8.77;;;;;;;16.72;100.00;100813.63;4999772;28;20049;-75
2021/07/24 04:43:02;;;;;;;17.20;8.88;;;;;;;16.65;100.00;100808.19;5003362;28;20510;-75
2021/07/24 04:45:28;;;;;;;15.73;9.18;;;;;;;16.74;100.00;100812.03;5013448;28;20176;-74
2021/07/24 04:47:53;;;;;;;16.67;9.57;;;;;;;16.78;100.00;100814.78;4997437;28;20035;-74
2021/07/24 04:50:19;;;;;;;13.93;8.45;;;;;;;16.67;100.00;100811.28;5013670;28;20071;-75
2021/07/24 04:52:45;;;;;;;15.68;9.20;;;;;;;16.71;100.00;100815.56;5016570;28;20409;-74
2021/07/24 04:55:11;;;;;;;14.43;8.80;;;;;;;16.83;100.00;100811.66;5020538;28;20533;-75
2021/07/24 04:57:37;;;;;;;17.73;10.00;;;;;;;16.90;100.00;100817.84;5010436;28;20048;-75
2021/07/24 05:00:06;;;;;;;16.50;9.13;;;;;;;16.92;100.00;100820.94;4997288;28;20038;-75
2021/07/24 05:02:32;;;;;;;16.33;9.70;;;;;;;16.94;100.00;100824.06;4993341;28;20034;-74
2021/07/24 05:04:57;;;;;;;15.30;9.32;;;;;;;17.11;100.00;100831.38;4995942;28;20427;-75
2021/07/24 05:07:23;;;;;;;16.98;9.48;;;;;;;17.23;100.00;100834.84;4998567;28;20112;-74
2021/07/24 05:09:48;;;;;;;16.38;9.07;;;;;;;17.19;100.00;100836.81;5022445;28;20038;-74
2021/07/24 05:12:14;;;;;;;14.00;8.98;;;;;;;17.20;100.00;100841.06;5008537;28;20109;-74
2021/07/24 05:14:39;;;;;;;17.30;9.65;;;;;;;17.22;100.00;100853.13;5019398;28;20546;-74
2021/07/24 05:17:13;;;;;;;16.85;9.65;;;;;;;17.40;100.00;100862.00;5019187;28;20406;-74
2021/07/24 05:19:40;;;;;;;15.00;9.25;;;;;;;17.50;100.00;100869.38;5009835;28;20041;-75
2021/07/24 05:22:07;;;;;;;16.75;8.98;;;;;;;17.74;100.00;100868.47;5026505;28;20084;-75
2021/07/24 05:24:34;;;;;;;15.10;8.85;;;;;;;18.20;100.00;100868.19;5010771;28;20038;-74
2021/07/24 05:27:00;;;;;;;12.50;7.43;;;;;;;18.98;99.13;100876.50;5019322;28;20027;-74
2021/07/24 05:29:26;;;;;;;13.35;7.53;;;;;;;19.84;94.02;100871.56;4999591;28;20033;-74
2021/07/24 05:31:51;;;;;;;14.48;7.43;;;;;;;20.76;88.74;100868.94;5010824;28;20141;-75
2021/07/24 05:34:17;;;;;;;11.80;6.78;;;;;;;21.60;84.09;100861.03;5001409;28;20484;-75
2021/07/24 05:36:42;;;;;;;12.50;6.88;;;;;;;22.13;81.75;100868.88;5010235;28;20033;-75
2021/07/24 05:39:08;;;;;;;11.10;6.40;;;;;;;22.63;79.16;100867.69;5028545;28;20034;-75
2021/07/24 05:41:33;;;;;;;12.35;6.18;;;;;;;23.00;77.05;100859.59;5013434;28;20041;-75
2021/07/24 05:43:59;;;;;;;11.85;6.20;;;;;;;23.32;75.21;100857.97;5005977;28;20045;-75
2021/07/24 05:46:24;;;;;;;9.10;6.25;;;;;;;23.67;74.43;100854.19;5017827;28;20080;-74
2021/07/24 05:48:49;;;;;;;9.82;6.18;;;;;;;23.90;72.79;100854.63;5005895;28;20041;-74
2021/07/24 05:51:15;;;;;;;8.18;5.28;;;;;;;24.20;71.59;100850.53;5000158;28;20545;-74
2021/07/24 05:53:40;;;;;;;8.75;5.80;;;;;;;24.24;70.89;100840.19;5005424;28;20609;-74
2021/07/24 05:56:06;;;;;;;8.77;5.45;;;;;;;24.34;71.46;100843.81;5025393;28;20064;-75
2021/07/24 05:58:32;;;;;;;8.98;5.28;;;;;;;24.39;71.29;100852.28;4999975;28;20034;-75
2021/07/24 06:00:58;;;;;;;11.00;5.57;;;;;;;24.40;71.48;100847.53;4995825;28;20026;-75
2021/07/24 06:03:23;;;;;;;11.07;5.43;;;;;;;24.35;72.49;100845.34;5010535;28;20034;-74
2021/07/24 06:05:49;;;;;;;9.15;5.30;;;;;;;24.41;72.03;100838.81;5005430;28;20445;-75
2021/07/24 06:08:14;;;;;;;8.02;5.03;;;;;;;24.52;71.93;100828.25;5005895;28;20030;-74
2021/07/24 06:10:40;;;;;;;9.05;4.95;;;;;;;24.52;71.67;100833.75;5005478;28;20030;-75
2021/07/24 06:13:05;;;;;;;8.10;5.28;;;;;;;24.57;71.86;100832.38;5002667;28;20030;-74
2021/07/24 06:15:31;;;;;;;8.27;5.45;;;;;;;24.50;71.95;100833.41;5030976;22;20064;-76
2021/07/24 06:17:57;;;;;;;9.63;4.95;;;;;;;24.43;72.58;100841.16;5013558;28;20474;-76
2021/07/24 06:20:22;;;;;;;9.88;5.43;;;;;;;24.44;71.09;100837.94;4993205;28;20014;-76
2021/07/24 06:22:48;;;;;;;9.02;4.93;;;;;;;24.41;72.20;100838.06;4990189;28;20046;-76
2021/07/24 06:25:14;;;;;;;9.75;5.25;;;;;;;24.50;71.38;100840.91;5006256;28;20038;-76
2021/07/24 06:27:41;;;;;;;7.15;4.90;;;;;;;24.44;72.21;100832.44;4993675;28;20498;-76
2021/07/24 06:30:10;;;;;;;11.32;4.82;;;;;;;24.48;73.13;100824.84;5008667;28;20041;-76
2021/07/24 06:32:36;;;;;;;6.30;5.00;;;;;;;24.54;72.08;100830.53;4987198;28;20038;-76
2021/07/24 06:35:01;;;;;;;9.60;5.00;;;;;;;24.58;70.82;100831.97;4991236;28;20034;-76
2021/07/24 06:37:27;;;;;;;7.72;4.68;;;;;;;24.62;70.83;100807.78;4977794;28;20023;-76
2021/07/24 06:39:54;;;;;;;11.25;4.85;;;;;;;24.53;71.57;100801.44;4990447;28;20081;-76
2021/07/24 06:42:20;;;;;;;8.70;4.85;;;;;;;24.51;70.59;100793.63;4992873;28;20049;-76
2021/07/24 06:44:45;;;;;;;9.35;4.63;;;;;;;24.52;72.21;100800.69;4992788;28;20037;-76
2021/07/24 06:47:12;;;;;;;11.38;5.20;;;;;;;24.52;72.11;100789.66;4989650;28;20077;-76
2021/07/24 06:49:38;;;;;;;8.30;5.35;;;;;;;24.40;73.98;100793.22;4991561;28;20100;-76
2021/07/24 06:52:04;;;;;;;8.43;4.80;;;;;;;24.41;74.42;100786.50;4989257;28;20034;-76
2021/07/24 06:54:29;;;;;;;9.05;4.85;;;;;;;24.40;72.65;100782.22;4990198;28;20111;-76
2021/07/24 06:56:55;;;;;;;8.38;4.60;;;;;;;24.46;72.81;100787.91;4992288;28;20030;-76
2021/07/24 06:59:20;;;;;;;5.90;4.32;;;;;;;24.46;71.86;100777.69;5007965;28;20501;-76
2021/07/24 07:01:45;;;;;;;7.15;4.22;;;;;;;24.44;71.83;100777.34;5004020;28;20026;-76
2021/07/24 07:04:11;;;;;;;13.00;4.78;;;;;;;24.35;72.45;100769.00;4991351;28;20526;-76
2021/07/24 07:06:40;;;;;;;6.15;4.55;;;;;;;24.39;72.27;100766.16;4988170;28;20053;-76
2021/07/24 07:09:05;;;;;;;6.80;4.40;;;;;;;24.22;72.26;100765.53;5007346;28;20030;-76
2021/07/24 07:11:30;;;;;;;10.27;4.13;;;;;;;24.27;71.79;100767.72;4991231;28;20490;-76
2021/07/24 07:13:56;;;;;;;6.95;4.70;;;;;;;24.30;72.71;100774.31;4990821;28;20503;-75
2021/07/24 07:16:21;;;;;;;7.30;4.50;;;;;;;24.57;69.75;100767.06;4980552;28;20458;-74
2021/07/24 07:18:47;;;;;;;8.07;4.32;;;;;;;24.49;70.34;100768.50;4989147;28;20042;-74
2021/07/24 07:21:12;;;;;;;7.60;4.13;;;;;;;24.55;70.89;100763.97;4991995;28;20034;-75
2021/07/24 07:23:38;;;;;;;6.90;4.13;;;;;;;24.66;70.94;100769.13;4985358;28;20022;-74
2021/07/24 07:26:03;;;;;;;9.70;4.55;;;;;;;24.77;71.42;100772.28;4990814;28;20045;-75
2021/07/24 07:28:29;;;;;;;7.65;3.90;;;;;;;24.77;70.76;100764.78;4986724;28;20038;-75
2021/07/24 07:30:54;;;;;;;7.95;3.80;;;;;;;24.81;70.13;100753.63;5007068;28;20045;-75
2021/07/24 07:33:20;;;;;;;7.28;4.10;;;;;;;24.95;70.18;100753.88;4997783;28;20061;-75
2021/07/24 07:35:46;;;;;;;9.95;4.00;;;;;;;24.92;71.08;100743.75;4990951;28;20030;-75
2021/07/24 07:38:12;;;;;;;5.90;4.03;;;;;;;24.99;71.61;100740.72;4986174;28;20074;-75
2021/07/24 07:40:39;;;;;;;7.40;4.10;;;;;;;25.16;67.88;100735.00;4991156;28;20136;-75
2021/07/24 07:43:06;;;;;;;7.20;4.10;;;;;;;25.24;68.38;100744.53;4985388;28;20049;-75
2021/07/24 07:45:32;;;;;;;7.22;4.07;;;;;;;25.27;66.43;100738.88;4990883;28;20061;-74
2021/07/24 07:47:58;;;;;;;9.15;3.80;;;;;;;25.35;67.31;100747.63;4992005;28;20507;-75
2021/07/24 07:50:23;;;;;;;8.77;4.25;;;;;;;25.36;68.04;100747.19;4997670;28;20038;-75
2021/07/24 07:52:49;;;;;;;5.95;4.00;;;;;;;25.41;69.24;100743.09;5000988;28;20397;-75
2021/07/24 07:55:15;;;;;;;4.63;3.70;;;;;;;25.51;69.36;100741.91;4991042;28;20045;-75
2021/07/24 07:57:41;;;;;;;10.38;4.05;;;;;;;25.54;66.25;100743.75;4978539;28;20125;-75
2021/07/24 08:00:08;;;;;;;10.35;3.70;;;;;;;25.59;67.01;100737.66;4985644;28;20141;-75
2021/07/24 08:02:37;;;;;;;8.10;3.80;;;;;;;25.69;66.45;100733.69;4986554;28;20034;-75
2021/07/24 08:05:03;;;;;;;7.32;3.95;;;;;;;25.85;65.97;100725.91;4990348;28;20044;-75
2021/07/24 08:07:29;;;;;;;6.35;4.25;;;;;;;25.97;66.24;100729.00;4980468;28;20077;-75
2021/07/24 08:09:56;;;;;;;6.68;3.83;;;;;;;25.83;65.45;100722.06;4991510;28;20037;-75
2021/07/24 08:12:24;;;;;;;6.90;4.40;;;;;;;26.02;63.95;100722.84;4991298;28;20080;-76
2021/07/24 08:14:50;;;;;;;7.22;3.97;;;;;;;25.89;63.99;100723.78;4990293;28;20405;-76
2021/07/24 08:17:18;;;;;;;6.70;3.88;;;;;;;25.90;64.97;100730.81;4988159;28;20047;-75
2021/07/24 08:19:44;;;;;;;7.00;3.90;;;;;;;26.00;64.24;100717.03;4984741;28;20397;-76
2021/07/24 08:22:09;;;;;;;8.32;4.07;;;;;;;26.20;62.27;100715.38;5002173;28;20125;-75
2021/07/24 08:24:34;;;;;;;6.50;3.92;;;;;;;26.40;61.50;100701.84;4990906;28;20038;-76
2021/07/24 08:27:00;;;;;;;6.93;3.47;;;;;;;26.38;62.28;100707.09;4988063;28;20486;-75
2021/07/24 08:29:25;;;;;;;7.78;3.72;;;;;;;26.50;60.49;100697.13;4990335;28;20030;-76
2021/07/24 08:31:51;;;;;;;5.78;3.45;;;;;;;26.49;59.23;100701.09;4991323;28;20491;-76
2021/07/24 08:34:16;;;;;;;5.88;3.60;;;;;;;26.56;57.99;100698.00;4990876;28;20535;-76
2021/07/24 08:36:42;;;;;;;8.70;3.42;;;;;;;26.43;59.71;100698.19;4987368;28;20487;-75
2021/07/24 08:39:07;;;;;;;7.82;3.40;;;;;;;26.69;59.49;100693.09;4996039;28;20061;-75
2021/07/24 08:41:32;;;;;;;6.63;3.67;;;;;;;26.94;58.77;100689.19;4991184;28;20060;-76
2021/07/24 08:43:58;;;;;;;5.55;3.45;;;;;;;26.92;56.48;100689.69;5005346;28;20196;-76
2021/07/24 08:46:23;;;;;;;7.93;3.58;;;;;;;26.88;56.25;100691.84;4977713;28;20022;-77
2021/07/24 08:48:49;;;;;;;4.18;3.38;;;;;;;27.01;55.06;100688.84;4990605;28;20046;-76
2021/07/24 08:51:20;;;;;;;6.13;3.22;;;;;;;26.93;53.90;100688.44;4987835;28;20042;-76
2021/07/24 08:53:46;;;;;;;4.43;3.17;;;;;;;26.90;54.21;100688.59;4979254;28;20035;-75
2021/07/24 08:56:23;;;;;;;7.85;3.78;;;;;;;27.13;55.83;100685.91;4991459;28;20552;-76
2021/07/24 08:58:53;;;;;;;6.30;3.60;;;;;;;27.36;55.87;100678.91;4993935;28;20031;-76
2021/07/24 09:01:21;;;;;;;6.40;3.40;;;;;;;27.45;54.53;100695.44;4994732;28;20439;-76
2021/07/24 09:03:46;;;;;;;4.47;3.55;;;;;;;27.41;53.21;100689.34;5007935;28;20037;-76
2021/07/24 09:06:23;;;;;;;5.82;3.58;;;;;;;27.34;52.01;100681.38;5005143;28;20031;-76
2021/07/24 09:08:51;;;;;;;10.85;3.15;;;;;;;27.73;54.38;100687.75;4988895;28;20169;-76
2021/07/24 09:11:17;;;;;;;6.55;3.40;;;;;;;27.89;52.49;100677.03;4994189;28;20027;-76
2021/07/24 09:13:43;;;;;;;6.57;3.55;;;;;;;27.72;51.16;100681.44;4988536;28;20038;-76
2021/07/24 09:16:09;;;;;;;6.30;3.42;;;;;;;27.76;51.56;100675.75;4994441;28;20030;-75
2021/07/24 09:18:36;;;;;;;7.35;3.30;;;;;;;27.80;51.22;100676.34;5004415;28;20459;-75
2021/07/24 09:21:01;;;;;;;6.20;3.60;;;;;;;27.81;49.88;100672.31;4981211;28;20147;-76
2021/07/24 09:23:35;;;;;;;6.70;3.03;;;;;;;27.81;50.31;100666.78;5005819;28;20499;-76
2021/07/24 09:26:05;;;;;;;5.63;3.08;;;;;;;28.02;50.83;100666.50;4993761;28;20038;-76
2021/07/24 09:28:31;;;;;;;6.63;3.60;;;;;;;28.11;51.41;100665.63;5007095;28;20118;-76
2021/07/24 09:30:56;;;;;;;5.07;3.45;;;;;;;28.06;50.51;100675.41;4991760;28;20026;-76
2021/07/24 09:33:22;;;;;;;5.30;3.13;;;;;;;28.32;50.52;100665.28;4992158;28;20491;-76
2021/07/24 09:35:52;;;;;;;5.55;3.75;;;;;;;28.29;50.49;100671.81;4992617;28;20030;-76
2021/07/24 09:38:33;;;;;;;10.30;3.50;;;;;;;28.43;50.53;100668.28;5005831;28;20127;-76
2021/07/24 09:41:03;;;;;;;5.63;3.58;;;;;;;28.44;49.65;100669.03;4993066;28;20041;-76
2021/07/24 09:43:42;;;;;;;4.18;3.10;;;;;;;28.61;49.74;100659.03;4993459;28;20503;-76
2021/07/24 09:46:21;;;;;;;7.43;3.65;;;;;;;28.60;48.03;100653.97;4993859;28;20065;-76
2021/07/24 09:48:51;;;;;;;8.10;3.40;;;;;;;28.80;49.92;100649.28;4987530;28;20023;-76
2021/07/24 09:51:37;;;;;;;6.23;3.53;;;;;;;28.99;49.29;100658.13;5002886;28;20084;-76
2021/07/24 09:54:04;;;;;;;8.00;3.45;;;;;;;29.15;49.28;100658.41;4985795;28;20308;-76
2021/07/24 09:56:42;;;;;;;5.45;3.30;;;;;;;29.23;49.84;100656.00;4999003;28;20034;-76
2021/07/24 09:59:24;;;;;;;5.40;3.15;;;;;;;28.97;49.42;100649.53;5005170;28;20042;-76
2021/07/24 10:01:59;;;;;;;7.45;3.28;;;;;;;29.32;49.08;100644.78;4998852;28;20126;-76
2021/07/24 10:04:33;;;;;;;3.70;3.17;;;;;;;29.10;47.40;100652.75;4993559;28;20060;-76
2021/07/24 10:07:07;;;;;;;6.35;3.40;;;;;;;29.00;46.35;100659.66;4987274;28;20073;-76
2021/07/24 10:09:33;;;;;;;5.65;3.13;;;;;;;29.27;48.03;100660.09;4993657;28;20065;-76
2021/07/24 10:12:02;;;;;;;4.68;3.40;;;;;;;29.46;46.99;100655.06;4993483;28;20038;-76
2021/07/24 10:14:28;;;;;;;4.75;3.17;;;;;;;29.59;47.68;100660.28;4993136;28;20037;-76
2021/07/24 10:16:56;;;;;;;7.78;3.65;;;;;;;29.05;46.62;100659.00;4988193;28;20394;-76
2021/07/24 10:19:23;;;;;;;4.60;3.33;;;;;;;29.17;47.64;100658.69;4992986;28;20034;-77
2021/07/24 10:21:50;;;;;;;5.30;3.63;;;;;;;28.91;47.20;100657.00;4988674;28;20356;-77
2021/07/24 10:24:16;;;;;;;4.57;3.38;;;;;;;29.01;47.80;100655.66;4991712;28;20531;-76
2021/07/24 10:26:49;;;;;;;5.22;3.13;;;;;;;29.32;48.29;100647.56;4991498;28;20062;-76
2021/07/24 10:29:19;;;;;;;8.05;3.42;;;;;;;29.77;47.10;100652.44;4980990;28;20046;-76
2021/07/24 10:32:01;;;;;;;5.45;3.45;;;;;;;29.98;45.21;100647.66;4991918;28;20061;-76
2021/07/24 10:34:30;;;;;;;4.55;3.53;;;;;;;30.05;46.88;100641.66;4991440;28;20097;-76
2021/07/24 10:36:56;;;;;;;4.30;3.30;;;;;;;30.21;45.69;100652.97;4987383;28;20101;-77
2021/07/24 10:39:22;;;;;;;5.13;3.38;;;;;;;30.13;45.37;100653.88;5005295;28;20494;-76
2021/07/24 10:42:07;;;;;;;5.28;3.53;;;;;;;30.38;45.43;100646.81;4993259;28;20178;-77
2021/07/24 10:44:36;;;;;;;5.47;3.53;;;;;;;30.55;45.94;100639.38;4989371;28;20697;-77
2021/07/24 10:47:02;;;;;;;8.55;3.90;;;;;;;30.57;46.15;100634.09;4986862;28;20036;-76
2021/07/24 10:49:33;;;;;;;5.50;3.80;;;;;;;30.86;45.90;100631.84;4988747;28;20542;-77
2021/07/24 10:52:06;;;;;;;5.13;3.65;;;;;;;30.87;44.89;100627.03;4988675;28;20136;-76
2021/07/24 10:54:33;;;;;;;4.70;3.72;;;;;;;30.24;44.51;100623.41;4987646;28;20172;-76
2021/07/24 10:56:59;;;;;;;5.90;3.92;;;;;;;30.06;45.14;100621.72;4991246;28;20035;-76
2021/07/24 10:59:28;;;;;;;5.40;3.90;;;;;;;30.11;46.58;100617.47;4988999;28;20234;-77
2021/07/24 11:02:01;;;;;;;7.80;3.70;;;;;;;30.31;45.69;100602.78;4987514;28;20483;-76
2021/07/24 11:04:36;;;;;;;4.30;3.08;;;;;;;30.65;45.85;100610.91;4991970;28;20034;-76
2021/07/24 11:07:13;;;;;;;6.07;3.63;;;;;;;31.02;44.45;100605.38;4980336;28;20061;-77
2021/07/24 11:09:39;;;;;;;5.72;3.92;;;;;;;30.79;45.02;100600.91;4982611;28;20050;-77
2021/07/24 11:12:06;;;;;;;6.82;3.83;;;;;;;31.05;45.93;100594.00;4991988;28;20069;-76
2021/07/24 11:14:34;;;;;;;5.22;3.92;;;;;;;30.98;44.77;100593.72;4991657;28;20050;-76
2021/07/24 11:17:11;;;;;;;7.55;3.70;;;;;;;30.98;45.30;100582.56;4979068;28;20656;-76
2021/07/24 11:19:49;;;;;;;5.75;4.05;;;;;;;30.89;45.81;100591.13;4985307;28;20030;-77
2021/07/24 11:22:16;;;;;;;5.53;4.13;;;;;;;31.10;45.74;100586.94;4992390;28;20042;-76
2021/07/24 11:24:46;;;;;;;5.30;3.75;;;;;;;31.37;44.58;100575.22;4982432;28;20034;-76